createdAt,value
2017-08-24T00:00:33.757Z,12.38
2017-08-24T00:01:33.770Z,12.42
2017-08-24T00:02:33.542Z,12.32
2017-08-24T00:03:33.816Z,12.35
2017-08-24T00:04:33.840Z,12.39
2017-08-24T00:05:33.546Z,12.38
2017-08-24T00:06:33.888Z,12.35
2017-08-24T00:07:33.910Z,12.37
2017-08-24T00:08:33.917Z,12.35
2017-08-24T00:09:33.961Z,12.23
2017-08-24T00:10:48.570Z,12.2
2017-08-24T00:11:33.976Z,12.14
2017-08-24T00:12:34.012Z,12.19
2017-08-24T00:13:34.029Z,12.13
2017-08-24T00:14:34.071Z,12.13
2017-08-24T00:15:34.084Z,12.14
2017-08-24T00:16:34.105Z,12.17
2017-08-24T00:17:34.118Z,12.23
2017-08-24T00:18:34.152Z,12.14
2017-08-24T00:20:34.190Z,12.14
2017-08-24T00:21:34.219Z,12.05
2017-08-24T00:22:33.922Z,12.02
2017-08-24T00:23:34.262Z,12.05
2017-08-24T00:24:34.300Z,11.96
2017-08-24T00:25:33.984Z,12.02
2017-08-24T00:26:48.923Z,12.02
2017-08-24T00:27:34.351Z,12.05
2017-08-24T00:28:34.064Z,12.1
2017-08-24T00:29:34.078Z,11.9
2017-08-24T00:30:34.407Z,12.02
2017-08-24T00:31:34.443Z,12.01
2017-08-24T00:32:34.446Z,11.99
2017-08-24T00:33:34.485Z,12.01
2017-08-24T00:34:34.504Z,11.99
2017-08-24T00:37:34.873Z,11.98
2017-08-24T00:38:49.186Z,11.99
2017-08-24T00:39:34.611Z,12.05
2017-08-24T00:40:34.651Z,12.07
2017-08-24T00:41:34.667Z,12.07
2017-08-24T00:42:48.956Z,11.99
2017-08-24T00:44:34.701Z,11.96
2017-08-24T00:45:34.752Z,11.99
2017-08-24T00:46:49.048Z,11.79
2017-08-24T00:47:34.791Z,11.94
2017-08-24T00:48:34.812Z,11.94
2017-08-24T00:49:34.825Z,11.83
2017-08-24T00:50:34.848Z,11.83
2017-08-24T00:51:34.877Z,11.86
2017-08-24T00:52:34.587Z,11.86
2017-08-24T00:53:34.916Z,11.85
2017-08-24T00:54:34.925Z,11.96
2017-08-24T00:55:34.653Z,11.95
2017-08-24T00:56:34.986Z,11.8
2017-08-24T00:57:35.063Z,11.82
2017-08-24T00:58:49.315Z,11.73
2017-08-24T00:59:49.642Z,11.83
2017-08-24T01:00:35.077Z,11.8
2017-08-24T01:02:34.799Z,11.76
2017-08-24T01:03:35.144Z,11.79
2017-08-24T01:04:34.858Z,11.76
2017-08-24T01:05:49.781Z,11.75
2017-08-24T01:06:34.892Z,11.76
2017-08-24T01:07:35.237Z,11.82
2017-08-24T01:08:49.839Z,11.72
2017-08-24T01:09:35.264Z,11.75
2017-08-24T01:10:34.989Z,11.72
2017-08-24T01:11:34.990Z,11.82
2017-08-24T01:12:35.348Z,11.78
2017-08-24T01:13:49.961Z,11.78
2017-08-24T01:14:35.381Z,11.79
2017-08-24T01:15:35.405Z,11.73
2017-08-24T01:16:35.409Z,11.73
2017-08-24T01:17:35.136Z,11.73
2017-08-24T01:18:35.156Z,11.76
2017-08-24T01:19:35.481Z,11.72
2017-08-24T01:20:35.516Z,11.78
2017-08-24T01:21:34.912Z,11.7
2017-08-24T01:22:35.557Z,11.65
2017-08-24T01:23:35.575Z,11.67
2017-08-24T01:24:35.591Z,11.67
2017-08-24T01:26:36.141Z,11.78
2017-08-24T01:27:35.345Z,11.61
2017-08-24T01:28:35.679Z,11.7
2017-08-24T01:29:35.710Z,11.67
2017-08-24T01:30:35.423Z,11.54
2017-08-24T01:31:35.444Z,11.58
2017-08-24T01:33:35.786Z,11.44
2017-08-24T01:34:35.500Z,11.43
2017-08-24T01:35:35.841Z,11.51
2017-08-24T01:36:35.552Z,11.51
2017-08-24T01:37:35.883Z,11.4
2017-08-24T01:39:35.929Z,11.49
2017-08-24T01:40:35.952Z,11.52
2017-08-24T01:41:35.659Z,11.55
2017-08-24T01:42:35.987Z,11.57
2017-08-24T01:43:36.007Z,11.58
2017-08-24T01:44:36.042Z,11.57
2017-08-24T01:45:50.647Z,11.58
2017-08-24T01:47:35.471Z,11.58
2017-08-24T01:48:36.127Z,11.54
2017-08-24T01:49:36.131Z,11.52
2017-08-24T01:50:36.174Z,11.52
2017-08-24T01:51:36.165Z,11.57
2017-08-24T01:52:36.200Z,11.52
2017-08-24T01:53:36.242Z,11.55
2017-08-24T01:54:36.241Z,11.44
2017-08-24T01:55:36.268Z,11.49
2017-08-24T01:56:35.678Z,11.44
2017-08-24T01:57:36.312Z,11.52
2017-08-24T01:58:36.332Z,11.49
2017-08-24T01:59:36.358Z,11.47
2017-08-24T02:00:36.365Z,11.44
2017-08-24T02:01:51.004Z,11.43
2017-08-24T02:02:36.427Z,11.46
2017-08-24T02:03:36.445Z,11.49
2017-08-24T02:04:36.164Z,11.47
2017-08-24T02:05:36.479Z,11.46
2017-08-24T02:06:36.212Z,11.37
2017-08-24T02:07:36.525Z,11.42
2017-08-24T02:08:36.557Z,11.39
2017-08-24T02:09:36.577Z,11.4
2017-08-24T02:10:36.592Z,11.35
2017-08-24T02:11:36.634Z,11.32
2017-08-24T02:12:36.630Z,11.37
2017-08-24T02:13:36.657Z,11.28
2017-08-24T02:14:36.675Z,11.43
2017-08-24T02:15:36.695Z,11.4
2017-08-24T02:16:36.732Z,11.47
2017-08-24T02:17:51.338Z,11.44
2017-08-24T02:18:36.752Z,11.51
2017-08-24T02:19:36.788Z,11.44
2017-08-24T02:20:51.402Z,11.52
2017-08-24T02:21:36.934Z,11.39
2017-08-24T02:22:36.846Z,11.4
2017-08-24T02:23:36.868Z,11.33
2017-08-24T02:24:36.576Z,11.32
2017-08-24T02:25:36.296Z,11.27
2017-08-24T02:26:36.637Z,11.32
2017-08-24T02:27:51.559Z,11.25
2017-08-24T02:28:36.993Z,11.29
2017-08-24T02:29:36.987Z,11.27
2017-08-24T02:31:37.046Z,11.09
2017-08-24T02:32:37.065Z,11.11
2017-08-24T02:34:51.701Z,11.03
2017-08-24T02:35:37.145Z,11.1
2017-08-24T02:36:37.146Z,11.04
2017-08-24T02:37:37.185Z,11
2017-08-24T02:38:37.190Z,10.99
2017-08-24T02:39:36.908Z,10.97
2017-08-24T02:40:36.975Z,10.97
2017-08-24T02:41:51.913Z,10.92
2017-08-24T02:42:37.308Z,10.99
2017-08-24T02:43:37.315Z,11.07
2017-08-24T02:44:37.003Z,11
2017-08-24T02:46:37.379Z,10.89
2017-08-24T02:47:37.397Z,10.96
2017-08-24T02:48:52.019Z,10.99
2017-08-24T02:49:37.421Z,10.92
2017-08-24T02:50:37.208Z,10.85
2017-08-24T02:51:37.468Z,10.94
2017-08-24T02:52:37.507Z,10.96
2017-08-24T02:53:36.900Z,11.06
2017-08-24T02:54:36.922Z,11.04
2017-08-24T02:55:37.258Z,11.03
2017-08-24T02:56:37.586Z,11
2017-08-24T02:57:37.294Z,10.89
2017-08-24T02:58:37.624Z,10.97
2017-08-24T02:59:37.349Z,10.92
2017-08-24T03:00:37.351Z,10.85
2017-08-24T03:01:37.384Z,10.89
2017-08-24T03:02:37.707Z,10.97
2017-08-24T03:03:37.413Z,10.96
2017-08-24T03:04:37.762Z,10.92
2017-08-24T03:06:37.813Z,10.99
2017-08-24T03:07:37.825Z,10.99
2017-08-24T03:08:37.855Z,10.89
2017-08-24T03:09:37.861Z,10.91
2017-08-24T03:10:37.887Z,10.88
2017-08-24T03:11:37.915Z,10.82
2017-08-24T03:12:37.931Z,10.92
2017-08-24T03:13:52.546Z,10.96
2017-08-24T03:14:37.989Z,10.94
2017-08-24T03:15:37.688Z,10.94
2017-08-24T03:16:38.017Z,10.96
2017-08-24T03:17:38.026Z,10.88
2017-08-24T03:18:38.055Z,10.85
2017-08-24T03:19:38.070Z,10.89
2017-08-24T03:20:52.688Z,10.85
2017-08-24T03:21:38.129Z,10.86
2017-08-24T03:23:38.174Z,10.84
2017-08-24T03:24:38.183Z,10.91
2017-08-24T03:25:38.195Z,10.88
2017-08-24T03:26:38.229Z,10.96
2017-08-24T03:27:37.940Z,10.88
2017-08-24T03:28:38.282Z,10.89
2017-08-24T03:29:38.278Z,10.94
2017-08-24T03:31:38.349Z,10.96
2017-08-24T03:32:38.343Z,10.92
2017-08-24T03:33:38.373Z,10.91
2017-08-24T03:34:38.389Z,10.84
2017-08-24T03:35:38.418Z,10.84
2017-08-24T03:37:38.720Z,10.91
2017-08-24T03:38:38.472Z,10.89
2017-08-24T03:39:38.508Z,10.88
2017-08-24T03:40:38.512Z,10.92
2017-08-24T03:41:38.543Z,10.89
2017-08-24T03:42:38.551Z,10.96
2017-08-24T03:43:38.593Z,10.92
2017-08-24T03:44:38.597Z,10.92
2017-08-24T03:45:38.628Z,10.88
2017-08-24T03:46:38.651Z,10.74
2017-08-24T03:48:53.287Z,10.67
2017-08-24T03:49:38.713Z,10.71
2017-08-24T03:50:38.735Z,10.67
2017-08-24T03:51:38.766Z,10.61
2017-08-24T03:52:53.372Z,10.56
2017-08-24T03:53:38.792Z,10.56
2017-08-24T03:54:38.822Z,10.53
2017-08-24T03:55:38.834Z,10.55
2017-08-24T03:56:38.867Z,10.59
2017-08-24T03:57:38.899Z,10.6
2017-08-24T03:59:38.619Z,10.48
2017-08-24T04:00:38.950Z,10.63
2017-08-24T04:01:38.985Z,10.67
2017-08-24T04:02:38.975Z,10.67
2017-08-24T04:03:39.012Z,10.71
2017-08-24T04:04:39.039Z,10.71
2017-08-24T04:05:39.054Z,10.68
2017-08-24T04:06:38.768Z,10.7
2017-08-24T04:07:39.087Z,10.71
2017-08-24T04:08:53.718Z,10.68
2017-08-24T04:09:38.820Z,10.66
2017-08-24T04:10:38.847Z,10.66
2017-08-24T04:11:39.174Z,10.73
2017-08-24T04:12:38.888Z,10.76
2017-08-24T04:13:39.232Z,10.66
2017-08-24T04:14:39.229Z,10.66
2017-08-24T04:15:39.281Z,10.64
2017-08-24T04:16:39.273Z,10.63
2017-08-24T04:17:39.291Z,10.67
2017-08-24T04:18:53.973Z,10.7
2017-08-24T04:19:39.357Z,10.64
2017-08-24T04:20:39.062Z,10.68
2017-08-24T04:21:39.083Z,10.7
2017-08-24T04:22:39.412Z,10.84
2017-08-24T04:25:39.471Z,10.88
2017-08-24T04:26:39.493Z,10.94
2017-08-24T04:27:39.521Z,10.96
2017-08-24T04:28:39.543Z,10.94
2017-08-24T04:29:39.572Z,11.04
2017-08-24T04:30:39.634Z,10.89
2017-08-24T04:32:39.636Z,10.92
2017-08-24T04:33:39.637Z,10.89
2017-08-24T04:34:39.660Z,10.94
2017-08-24T04:36:39.699Z,10.99
2017-08-24T04:37:54.339Z,10.99
2017-08-24T04:38:39.758Z,11
2017-08-24T04:39:39.786Z,11.07
2017-08-24T04:40:39.786Z,11.07
2017-08-24T04:41:39.804Z,11.14
2017-08-24T04:42:39.845Z,11.18
2017-08-24T04:43:39.868Z,11.09
2017-08-24T04:44:39.899Z,11.15
2017-08-24T04:45:39.893Z,11.19
2017-08-24T04:46:39.926Z,11.28
2017-08-24T04:47:39.930Z,11.21
2017-08-24T04:48:39.973Z,11.35
2017-08-24T04:49:39.985Z,11.61
2017-08-24T04:50:40.017Z,12.01
2017-08-24T04:51:40.032Z,12.31
2017-08-24T04:52:54.646Z,12.65
2017-08-24T04:53:39.759Z,12.89
2017-08-24T04:54:40.085Z,13.23
2017-08-24T04:56:40.125Z,13.91
2017-08-24T04:57:39.855Z,14.17
2017-08-24T04:58:39.877Z,14.5
2017-08-24T04:59:39.895Z,14.72
2017-08-24T05:00:39.923Z,14.99
2017-08-24T05:01:39.951Z,15.16
2017-08-24T05:02:39.969Z,15.49
2017-08-24T05:03:40.007Z,15.71
2017-08-24T05:04:40.308Z,15.86
2017-08-24T05:05:40.353Z,16.09
2017-08-24T05:06:40.061Z,16.33
2017-08-24T05:07:40.402Z,16.57
2017-08-24T05:08:40.418Z,16.71
2017-08-24T05:09:40.449Z,17.06
2017-08-24T05:10:40.471Z,17.23
2017-08-24T05:11:55.102Z,17.54
2017-08-24T05:12:40.505Z,17.62
2017-08-24T05:13:40.552Z,17.54
2017-08-24T05:14:40.553Z,17.59
2017-08-24T05:15:39.984Z,17.3
2017-08-24T05:16:40.624Z,17.01
2017-08-24T05:17:40.657Z,17.04
2017-08-24T05:18:40.367Z,17.21
2017-08-24T05:19:40.701Z,17.31
2017-08-24T05:20:40.726Z,17.37
2017-08-24T05:21:40.753Z,17.04
2017-08-24T05:22:40.468Z,16.78
2017-08-24T05:23:40.789Z,16.57
2017-08-24T05:24:40.514Z,16.43
2017-08-24T05:25:40.543Z,16.28
2017-08-24T05:26:40.563Z,16.04
2017-08-24T05:27:55.525Z,15.72
2017-08-24T05:28:40.931Z,15.74
2017-08-24T05:29:40.962Z,15.87
2017-08-24T05:30:40.984Z,16.31
2017-08-24T05:31:40.987Z,16.64
2017-08-24T05:32:41.044Z,17.14
2017-08-24T05:33:40.736Z,17.52
2017-08-24T05:34:41.091Z,17.71
2017-08-24T05:35:41.103Z,17.9
2017-08-24T05:36:40.831Z,18.02
2017-08-24T05:37:41.166Z,17.89
2017-08-24T05:38:41.172Z,17.78
2017-08-24T05:39:41.216Z,17.77
2017-08-24T05:40:41.242Z,17.86
2017-08-24T05:42:41.286Z,18.91
2017-08-24T05:43:55.613Z,19.36
2017-08-24T05:44:41.334Z,19.48
2017-08-24T05:45:41.386Z,19.31
2017-08-24T05:46:41.390Z,19.55
2017-08-24T05:47:41.439Z,19.55
2017-08-24T05:48:41.465Z,19.43
2017-08-24T05:49:56.070Z,19.14
2017-08-24T05:50:41.516Z,19
2017-08-24T05:51:41.530Z,18.69
2017-08-24T05:52:41.553Z,18.51
2017-08-24T05:53:56.207Z,18.85
2017-08-24T05:54:41.674Z,18.85
2017-08-24T05:55:41.625Z,18.69
2017-08-24T05:56:41.686Z,18.69
2017-08-24T05:58:56.328Z,19.28
2017-08-24T05:59:41.757Z,19.63
2017-08-24T06:01:41.806Z,20.1
2017-08-24T06:02:41.824Z,20.41
2017-08-24T06:03:41.876Z,20.54
2017-08-24T06:05:41.931Z,20.87
2017-08-24T06:06:41.636Z,20.67
2017-08-24T06:07:41.670Z,20.57
2017-08-24T06:08:42.012Z,20.1
2017-08-24T06:09:42.022Z,20.05
2017-08-24T06:10:42.318Z,20.11
2017-08-24T06:12:41.841Z,19.99
2017-08-24T06:13:42.145Z,20.1
2017-08-24T06:14:42.187Z,19.88
2017-08-24T06:15:42.216Z,19.83
2017-08-24T06:16:42.224Z,19.96
2017-08-24T06:17:42.264Z,20.28
2017-08-24T06:18:42.305Z,20.69
2017-08-24T06:19:42.314Z,20.82
2017-08-24T06:20:42.054Z,21.1
2017-08-24T06:21:42.374Z,20.94
2017-08-24T06:22:42.413Z,20.97
2017-08-24T06:23:42.634Z,20.97
2017-08-24T06:24:42.467Z,21.46
2017-08-24T06:25:42.496Z,21.62
2017-08-24T06:26:42.533Z,21.46
2017-08-24T06:27:42.556Z,21.56
2017-08-24T06:28:42.596Z,21.92
2017-08-24T06:29:42.620Z,21.56
2017-08-24T06:30:57.240Z,22.31
2017-08-24T06:31:42.690Z,22.79
2017-08-24T06:32:42.710Z,23.04
2017-08-24T06:33:42.764Z,23.35
2017-08-24T06:34:42.762Z,23.48
2017-08-24T06:35:57.402Z,23.42
2017-08-24T06:36:42.524Z,23.27
2017-08-24T06:37:42.861Z,23.46
2017-08-24T06:38:42.893Z,23.43
2017-08-24T06:39:57.527Z,23.47
2017-08-24T06:40:57.559Z,23.85
2017-08-24T06:41:42.996Z,24.2
2017-08-24T06:42:43.024Z,24.22
2017-08-24T06:43:42.757Z,23.87
2017-08-24T06:44:43.110Z,23.53
2017-08-24T06:45:43.123Z,23.13
2017-08-24T06:46:57.755Z,22.68
2017-08-24T06:47:43.187Z,22.4
2017-08-24T06:48:43.234Z,22.43
2017-08-24T06:50:43.284Z,22.68
2017-08-24T06:51:43.321Z,22.92
2017-08-24T06:52:43.566Z,22.92
2017-08-24T06:53:57.977Z,22.31
2017-08-24T06:54:43.093Z,22.02
2017-08-24T06:55:43.116Z,22.02
2017-08-24T06:56:43.149Z,21.82
2017-08-24T06:57:43.486Z,21.77
2017-08-24T06:58:43.252Z,22.02
2017-08-24T06:59:43.556Z,21.9
2017-08-24T07:00:43.591Z,21.86
2017-08-24T07:01:43.600Z,21.84
2017-08-24T07:02:58.250Z,21.98
2017-08-24T07:03:43.662Z,21.77
2017-08-24T07:04:43.701Z,21.5
2017-08-24T07:05:43.741Z,21.47
2017-08-24T07:06:43.749Z,21.47
2017-08-24T07:08:43.808Z,21.29
2017-08-24T07:09:43.843Z,21.42
2017-08-24T07:10:43.895Z,21.28
2017-08-24T07:11:43.584Z,21.38
2017-08-24T07:12:43.943Z,21.37
2017-08-24T07:13:43.959Z,21.32
2017-08-24T07:14:43.990Z,21.37
2017-08-24T07:15:44.077Z,21.31
2017-08-24T07:16:58.643Z,21.61
2017-08-24T07:17:44.074Z,21.46
2017-08-24T07:18:58.423Z,21.52
2017-08-24T07:20:44.167Z,21.59
2017-08-24T07:21:44.177Z,21.86
2017-08-24T07:22:44.258Z,22.15
2017-08-24T07:24:44.276Z,22.6
2017-08-24T07:25:44.318Z,22.7
2017-08-24T07:27:58.958Z,23.38
2017-08-24T07:28:44.390Z,23.83
2017-08-24T07:29:44.422Z,23.84
2017-08-24T07:30:44.458Z,24.21
2017-08-24T07:31:44.483Z,24.35
2017-08-24T07:32:44.507Z,24.35
2017-08-24T07:33:59.132Z,24.57
2017-08-24T07:34:44.565Z,24.78
2017-08-24T07:35:44.585Z,24.99
2017-08-24T07:36:44.624Z,24.91
2017-08-24T07:37:44.337Z,24.85
2017-08-24T07:38:44.386Z,24.69
2017-08-24T07:40:44.440Z,24.2
2017-08-24T07:41:44.784Z,24.42
2017-08-24T07:43:59.434Z,24.73
2017-08-24T07:44:44.866Z,25.2
2017-08-24T07:45:44.902Z,25.6
2017-08-24T07:46:44.915Z,26.21
2017-08-24T07:47:44.962Z,26.44
2017-08-24T07:48:44.998Z,26.55
2017-08-24T07:49:45.034Z,26.51
2017-08-24T07:51:45.092Z,26.15
2017-08-24T07:52:45.113Z,26.2
2017-08-24T07:53:45.140Z,26.21
2017-08-24T07:54:44.868Z,25.88
2017-08-24T07:55:45.224Z,26.15
2017-08-24T07:56:45.253Z,26.33
2017-08-24T07:57:59.884Z,26.65
2017-08-24T07:58:45.325Z,26.58
2017-08-24T07:59:45.337Z,26.72
2017-08-24T08:00:45.070Z,26.95
2017-08-24T08:01:45.400Z,26.95
2017-08-24T08:02:45.458Z,26.95
2017-08-24T08:03:45.486Z,27.43
2017-08-24T08:04:45.519Z,27.67
2017-08-24T08:06:00.132Z,28.24
2017-08-24T08:06:45.568Z,28.59
2017-08-24T08:07:45.619Z,28.49
2017-08-24T08:08:45.651Z,28.54
2017-08-24T08:09:45.688Z,28.48
2017-08-24T08:10:45.720Z,28.49
2017-08-24T08:11:45.752Z,28.24
2017-08-24T08:13:00.377Z,28.25
2017-08-24T08:13:45.808Z,28.09
2017-08-24T08:15:00.447Z,27.82
2017-08-24T08:15:45.882Z,27.85
2017-08-24T08:16:45.905Z,28.12
2017-08-24T08:17:45.938Z,27.78
2017-08-24T08:18:45.970Z,27.93
2017-08-24T08:19:46.009Z,27.82
2017-08-24T08:20:46.052Z,28.02
2017-08-24T08:22:00.366Z,28
2017-08-24T08:22:46.104Z,28.12
2017-08-24T08:23:45.818Z,28.58
2017-08-24T08:24:45.866Z,28.64
2017-08-24T08:25:46.209Z,28.68
2017-08-24T08:26:45.935Z,29.04
2017-08-24T08:27:46.272Z,29.33
2017-08-24T08:28:46.313Z,29.26
2017-08-24T08:29:46.343Z,29.11
2017-08-24T08:30:46.357Z,29.06
2017-08-24T08:32:01.007Z,29
2017-08-24T08:33:46.486Z,28.78
2017-08-24T08:34:46.203Z,28.39
2017-08-24T08:35:46.534Z,28.29
2017-08-24T08:36:46.569Z,28.18
2017-08-24T08:38:00.897Z,27.82
2017-08-24T08:38:46.642Z,27.62
2017-08-24T08:39:46.684Z,27.7
2017-08-24T08:40:46.695Z,27.55
2017-08-24T08:41:46.732Z,27.34
2017-08-24T08:42:46.769Z,27.41
2017-08-24T08:43:46.809Z,27.43
2017-08-24T08:44:47.118Z,27.39
2017-08-24T08:45:46.858Z,27.41
2017-08-24T08:47:46.946Z,27.03
2017-08-24T08:48:46.967Z,26.94
2017-08-24T08:49:47.009Z,26.92
2017-08-24T08:50:46.716Z,26.84
2017-08-24T08:51:47.062Z,26.51
2017-08-24T08:52:47.090Z,26.43
2017-08-24T08:54:01.726Z,26.45
2017-08-24T08:54:46.845Z,26.33
2017-08-24T08:55:46.878Z,26.32
2017-08-24T08:56:47.224Z,26.36
2017-08-24T08:59:01.886Z,26.35
2017-08-24T08:59:47.315Z,26.47
2017-08-24T09:00:47.328Z,26.45
2017-08-24T09:01:47.379Z,26.72
2017-08-24T09:02:47.098Z,26.73
2017-08-24T09:03:47.112Z,26.55
2017-08-24T09:04:47.147Z,26.62
2017-08-24T09:05:47.511Z,26.44
2017-08-24T09:06:47.524Z,26.47
2017-08-24T09:07:47.249Z,26.66
2017-08-24T09:09:02.193Z,26.7
2017-08-24T09:10:47.334Z,27.37
2017-08-24T09:11:47.693Z,27.32
2017-08-24T09:12:47.720Z,27.36
2017-08-24T09:13:47.455Z,27.46
2017-08-24T09:14:47.782Z,27.72
2017-08-24T09:15:47.486Z,27.74
2017-08-24T09:16:47.842Z,27.81
2017-08-24T09:17:47.544Z,27.65
2017-08-24T09:19:02.505Z,28.03
2017-08-24T09:20:02.535Z,28.25
2017-08-24T09:20:47.649Z,28.43
2017-08-24T09:22:02.592Z,28.27
2017-08-24T09:22:47.716Z,27.94
2017-08-24T09:23:47.742Z,27.84
2017-08-24T09:24:47.772Z,27.67
2017-08-24T09:25:47.809Z,27.75
2017-08-24T09:26:47.830Z,27.79
2017-08-24T09:27:47.963Z,27.55
2017-08-24T09:28:48.206Z,27.5
2017-08-24T09:30:48.276Z,27.57
2017-08-24T09:31:48.296Z,27.78
2017-08-24T09:32:48.343Z,27.82
2017-08-24T09:33:48.042Z,28.11
2017-08-24T09:35:48.108Z,28.27
2017-08-24T09:36:48.147Z,28.25
2017-08-24T09:37:48.491Z,28
2017-08-24T09:38:48.531Z,27.9
2017-08-24T09:39:48.547Z,27.97
2017-08-24T09:41:03.158Z,27.93
2017-08-24T09:41:48.608Z,27.94
2017-08-24T09:43:48.672Z,27.88
2017-08-24T09:44:48.709Z,27.7
2017-08-24T09:45:48.736Z,27.74
2017-08-24T09:47:03.351Z,27.57
2017-08-24T09:47:48.478Z,27.41
2017-08-24T09:48:48.505Z,27.32
2017-08-24T09:50:03.453Z,27.13
2017-08-24T09:50:48.572Z,27.14
2017-08-24T09:51:48.621Z,27.17
2017-08-24T09:52:48.939Z,27.31
2017-08-24T09:53:48.967Z,27.31
2017-08-24T09:54:48.995Z,27.28
2017-08-24T09:55:49.044Z,27.28
2017-08-24T09:57:48.786Z,27.28
2017-08-24T09:58:48.819Z,27.29
2017-08-24T09:59:49.149Z,27.29
2017-08-24T10:00:49.190Z,27.41
2017-08-24T10:02:48.916Z,27.27
2017-08-24T10:03:49.284Z,27.09
2017-08-24T10:04:49.278Z,26.88
2017-08-24T10:05:49.324Z,26.63
2017-08-24T10:06:49.036Z,26.63
2017-08-24T10:07:49.122Z,26.44
2017-08-24T10:08:49.426Z,26.21
2017-08-24T10:09:49.126Z,25.9
2017-08-24T10:10:49.161Z,25.57
2017-08-24T10:11:49.503Z,25.4
2017-08-24T10:13:04.149Z,25.24
2017-08-24T10:13:49.241Z,25.21
2017-08-24T10:14:49.278Z,24.87
2017-08-24T10:15:49.632Z,24.52
2017-08-24T10:16:49.340Z,24.18
2017-08-24T10:17:49.684Z,23.75
2017-08-24T10:18:49.710Z,23.31
2017-08-24T10:19:49.448Z,22.77
2017-08-24T10:20:49.762Z,22.31
2017-08-24T10:21:49.797Z,21.67
2017-08-24T10:22:49.822Z,21.44
2017-08-24T10:23:49.856Z,21.4
2017-08-24T10:24:50.011Z,21.34
2017-08-24T10:25:49.911Z,21.25
2017-08-24T10:26:49.937Z,21.14
2017-08-24T10:27:49.959Z,21.16
2017-08-24T10:29:04.648Z,21.1
2017-08-24T10:29:50.171Z,20.92
2017-08-24T10:30:50.204Z,20.82
2017-08-24T10:31:50.075Z,20.7
2017-08-24T10:32:49.769Z,20.85
2017-08-24T10:33:50.126Z,20.87
2017-08-24T10:34:50.139Z,21.09
2017-08-24T10:35:49.857Z,21.21
2017-08-24T10:36:49.886Z,21.25
2017-08-24T10:37:50.237Z,21.32
2017-08-24T10:38:50.259Z,21.35
2017-08-24T10:39:50.284Z,21.47
2017-08-24T10:40:50.309Z,21.67
2017-08-24T10:41:50.319Z,21.75
2017-08-24T10:42:50.362Z,22.15
2017-08-24T10:44:04.992Z,22.45
2017-08-24T10:44:50.410Z,22.7
2017-08-24T10:45:50.425Z,22.8
2017-08-24T10:46:50.155Z,23.05
2017-08-24T10:47:49.854Z,23.12
2017-08-24T10:48:50.234Z,23.25
2017-08-24T10:49:50.238Z,23.33
2017-08-24T10:50:50.265Z,23.47
2017-08-24T10:51:50.278Z,23.66
2017-08-24T10:52:50.297Z,23.72
2017-08-24T10:53:50.356Z,23.73
2017-08-24T10:54:50.369Z,23.78
2017-08-24T10:55:50.388Z,23.48
2017-08-24T10:56:50.732Z,23.57
2017-08-24T10:57:50.772Z,23.78
2017-08-24T10:58:50.162Z,23.75
2017-08-24T10:59:50.830Z,23.91
2017-08-24T11:00:50.859Z,24.1
2017-08-24T11:01:50.543Z,24.3
2017-08-24T11:02:50.904Z,24.35
2017-08-24T11:03:50.961Z,24.39
2017-08-24T11:05:50.993Z,24.53
2017-08-24T11:08:51.055Z,25.17
2017-08-24T11:09:51.096Z,25.38
2017-08-24T11:10:51.133Z,25.58
2017-08-24T11:11:51.150Z,25.64
2017-08-24T11:12:51.178Z,25.77
2017-08-24T11:13:53.049Z,25.6
2017-08-24T11:14:51.240Z,25.82
2017-08-24T11:16:05.858Z,25.97
2017-08-24T11:16:50.986Z,25.97
2017-08-24T11:17:51.310Z,26.02
2017-08-24T11:18:51.350Z,25.91
2017-08-24T11:19:51.355Z,26.05
2017-08-24T11:20:51.419Z,26.05
2017-08-24T11:21:51.411Z,26.07
2017-08-24T11:23:51.479Z,26.26
2017-08-24T11:24:51.512Z,26.3
2017-08-24T11:25:51.639Z,26.29
2017-08-24T11:26:51.580Z,26.18
2017-08-24T11:27:51.584Z,25.99
2017-08-24T11:28:51.632Z,26.13
2017-08-24T11:29:51.648Z,26.3
2017-08-24T11:30:51.686Z,26.33
2017-08-24T11:32:06.301Z,26.54
2017-08-24T11:32:51.719Z,26.54
2017-08-24T11:33:51.763Z,26.45
2017-08-24T11:34:51.802Z,26.54
2017-08-24T11:35:51.826Z,26.55
2017-08-24T11:36:51.851Z,26.57
2017-08-24T11:37:51.884Z,26.48
2017-08-24T11:38:51.898Z,26.48
2017-08-24T11:39:51.626Z,26.6
2017-08-24T11:40:51.964Z,26.5
2017-08-24T11:41:51.686Z,26.67
2017-08-24T11:42:52.017Z,26.75
2017-08-24T11:43:52.046Z,26.85
2017-08-24T11:44:51.784Z,26.75
2017-08-24T11:45:52.094Z,26.77
2017-08-24T11:46:52.184Z,26.75
2017-08-24T11:48:06.766Z,26.88
2017-08-24T11:48:52.168Z,26.91
2017-08-24T11:49:51.897Z,26.94
2017-08-24T11:50:51.923Z,27.06
2017-08-24T11:51:51.955Z,27.09
2017-08-24T11:52:52.307Z,26.97
2017-08-24T11:53:52.015Z,26.87
2017-08-24T11:54:52.027Z,26.91
2017-08-24T11:55:52.373Z,27.09
2017-08-24T11:56:52.415Z,27.13
2017-08-24T11:57:52.446Z,27.04
2017-08-24T11:58:52.476Z,27.02
2017-08-24T11:59:52.481Z,27.04
2017-08-24T12:00:52.541Z,27.32
2017-08-24T12:01:52.552Z,27.31
2017-08-24T12:02:52.591Z,27.27
2017-08-24T12:04:07.204Z,27.09
2017-08-24T12:04:52.656Z,27.04
2017-08-24T12:05:52.362Z,27.18
2017-08-24T12:06:52.378Z,27.36
2017-08-24T12:08:52.736Z,27.1
2017-08-24T12:10:07.392Z,27.22
2017-08-24T12:10:52.506Z,27.36
2017-08-24T12:11:52.860Z,27.37
2017-08-24T12:12:52.876Z,27.17
2017-08-24T12:13:52.596Z,27.17
2017-08-24T12:14:52.609Z,27.27
2017-08-24T12:15:52.651Z,27.31
2017-08-24T12:16:52.993Z,27.43
2017-08-24T12:17:53.030Z,27.49
2017-08-24T12:19:07.639Z,27.66
2017-08-24T12:19:53.077Z,27.55
2017-08-24T12:21:53.134Z,27.31
2017-08-24T12:22:53.160Z,27.31
2017-08-24T12:23:53.173Z,27.32
2017-08-24T12:24:53.216Z,27.43
2017-08-24T12:25:53.248Z,27.54
2017-08-24T12:26:52.966Z,27.19
2017-08-24T12:27:53.303Z,27.14
2017-08-24T12:28:53.346Z,26.91
2017-08-24T12:29:53.350Z,26.95
2017-08-24T12:30:53.074Z,26.87
2017-08-24T12:31:53.419Z,27.03
2017-08-24T12:32:53.473Z,27.17
2017-08-24T12:33:53.466Z,27.14
2017-08-24T12:34:53.490Z,27.13
2017-08-24T12:35:53.511Z,27.13
2017-08-24T12:36:53.567Z,27.17
2017-08-24T12:37:53.588Z,27.32
2017-08-24T12:38:53.877Z,27.28
2017-08-24T12:39:53.330Z,27.27
2017-08-24T12:40:53.677Z,27.06
2017-08-24T12:41:53.690Z,27.04
2017-08-24T12:43:53.766Z,26.89
2017-08-24T12:44:53.786Z,26.88
2017-08-24T12:46:53.844Z,26.82
2017-08-24T12:47:53.876Z,26.82
2017-08-24T12:48:53.904Z,26.81
2017-08-24T12:49:53.927Z,26.72
2017-08-24T12:51:08.556Z,26.44
2017-08-24T12:51:53.982Z,26.4
2017-08-24T12:53:08.612Z,26.48
2017-08-24T12:53:54.053Z,26.45
2017-08-24T12:54:54.069Z,26.52
2017-08-24T12:55:54.107Z,26.62
2017-08-24T12:56:53.820Z,26.5
2017-08-24T12:57:54.156Z,26.48
2017-08-24T12:58:54.193Z,26.48
2017-08-24T12:59:53.898Z,26.48
2017-08-24T13:00:54.258Z,26.54
2017-08-24T13:01:53.944Z,26.73
2017-08-24T13:03:53.704Z,26.66
2017-08-24T13:04:54.042Z,26.58
2017-08-24T13:05:54.388Z,26.72
2017-08-24T13:07:09.021Z,26.87
2017-08-24T13:07:54.460Z,26.89
2017-08-24T13:08:54.462Z,27.07
2017-08-24T13:09:54.507Z,27.25
2017-08-24T13:10:54.217Z,27.17
2017-08-24T13:11:54.559Z,27.06
2017-08-24T13:12:54.279Z,26.99
2017-08-24T13:14:09.222Z,26.94
2017-08-24T13:14:54.641Z,26.89
2017-08-24T13:16:54.693Z,26.99
2017-08-24T13:18:54.435Z,26.82
2017-08-24T13:19:54.480Z,26.67
2017-08-24T13:20:54.552Z,26.63
2017-08-24T13:21:54.519Z,26.72
2017-08-24T13:23:09.478Z,26.82
2017-08-24T13:23:54.575Z,26.89
2017-08-24T13:25:09.523Z,26.75
2017-08-24T13:25:54.964Z,26.69
2017-08-24T13:26:54.987Z,26.84
2017-08-24T13:27:55.022Z,26.91
2017-08-24T13:28:54.763Z,27
2017-08-24T13:29:55.078Z,26.82
2017-08-24T13:31:09.700Z,26.75
2017-08-24T13:31:54.823Z,26.77
2017-08-24T13:33:09.437Z,26.82
2017-08-24T13:33:55.195Z,26.88
2017-08-24T13:34:55.218Z,26.84
2017-08-24T13:35:55.282Z,26.67
2017-08-24T13:37:55.308Z,26.89
2017-08-24T13:39:09.920Z,26.88
2017-08-24T13:40:55.376Z,27
2017-08-24T13:41:55.416Z,27.14
2017-08-24T13:42:55.135Z,27.13
2017-08-24T13:43:55.156Z,27.24
2017-08-24T13:44:55.511Z,26.76
2017-08-24T13:45:55.529Z,26.91
2017-08-24T13:46:55.559Z,26.88
2017-08-24T13:47:55.259Z,27.06
2017-08-24T13:48:55.606Z,27.09
2017-08-24T13:49:55.319Z,27.06
2017-08-24T13:50:55.664Z,26.99
2017-08-24T13:51:55.387Z,26.82
2017-08-24T13:52:55.718Z,26.66
2017-08-24T13:54:10.354Z,26.5